createdAt,value
2022-09-15T00:02:10.717Z,100694.88
2022-09-15T00:04:38.497Z,100688.63
2022-09-15T00:07:07.595Z,100690.25
2022-09-15T00:09:36.321Z,100692.44
2022-09-15T00:12:04.356Z,100688.88
2022-09-15T00:14:32.277Z,100686.44
2022-09-15T00:16:59.923Z,100691.59
2022-09-15T00:19:27.453Z,100686.44
2022-09-15T00:21:55.164Z,100683.19
2022-09-15T00:24:23.174Z,100691.28
2022-09-15T00:26:51.047Z,100686.09
2022-09-15T00:29:18.727Z,100682.56
2022-09-15T00:31:46.507Z,100683.88
2022-09-15T00:34:15.112Z,100687.16
2022-09-15T00:36:45.323Z,100685.00
2022-09-15T00:39:12.830Z,100675.78
2022-09-15T00:41:41.894Z,100671.66
2022-09-15T00:44:37.163Z,100679.84
2022-09-15T00:47:19.124Z,100676.31
2022-09-15T00:49:54.841Z,100674.91
2022-09-15T00:52:36.993Z,100673.56
2022-09-15T00:55:14.545Z,100674.09
2022-09-15T00:58:07.748Z,100674.09
2022-09-15T01:00:36.023Z,100669.50
2022-09-15T01:03:04.884Z,100666.75
2022-09-15T01:05:41.912Z,100663.78
2022-09-15T01:08:21.064Z,100665.66
2022-09-15T01:10:48.470Z,100660.19
2022-09-15T01:13:15.980Z,100662.91
2022-09-15T01:16:15.305Z,100666.72
2022-09-15T01:19:12.424Z,100667.34
2022-09-15T01:22:22.498Z,100673.06
2022-09-15T01:25:04.651Z,100656.25
2022-09-15T01:27:46.642Z,100665.44
2022-09-15T01:30:14.358Z,100665.97
2022-09-15T01:33:05.861Z,100667.84
2022-09-15T01:35:54.803Z,100665.94
2022-09-15T01:38:32.045Z,100658.59
2022-09-15T01:41:04.403Z,100662.34
2022-09-15T01:43:36.015Z,100664.81
2022-09-15T01:46:05.180Z,100659.63
2022-09-15T01:48:36.439Z,100666.19
2022-09-15T01:51:07.258Z,100663.72
2022-09-15T01:53:35.532Z,100652.88
2022-09-15T01:56:12.731Z,100658.28
2022-09-15T01:58:42.038Z,100656.34
2022-09-15T02:01:34.302Z,100659.91
2022-09-15T02:04:23.528Z,100655.84
2022-09-15T02:07:14.054Z,100646.22
2022-09-15T02:09:51.395Z,100644.84
2022-09-15T02:12:34.342Z,100644.56
2022-09-15T02:15:11.140Z,100642.91
2022-09-15T02:17:43.507Z,100647.53
2022-09-15T02:20:33.831Z,100647.28
2022-09-15T02:23:08.937Z,100640.97
2022-09-15T02:25:48.267Z,100641.56
2022-09-15T02:28:30.315Z,100640.22
2022-09-15T02:31:09.550Z,100648.94
2022-09-15T02:33:43.195Z,100631.88
2022-09-15T02:36:14.846Z,100638.66
2022-09-15T02:38:53.540Z,100646.53
2022-09-15T02:41:21.811Z,100635.91
2022-09-15T02:43:50.343Z,100634.84
2022-09-15T02:46:21.886Z,100627.75
2022-09-15T02:48:49.264Z,100640.28
2022-09-15T02:51:18.981Z,100628.88
2022-09-15T02:53:55.093Z,100633.50
2022-09-15T02:56:24.282Z,100635.69
2022-09-15T02:58:52.287Z,100637.84
2022-09-15T03:01:19.820Z,100640.59
2022-09-15T03:03:47.741Z,100636.53
2022-09-15T03:06:18.269Z,100629.47
2022-09-15T03:08:56.155Z,100628.66
2022-09-15T03:11:26.055Z,100629.72
2022-09-15T03:13:55.849Z,100635.16
2022-09-15T03:16:24.229Z,100636.00
2022-09-15T03:19:02.899Z,100638.97
2022-09-15T03:21:31.275Z,100639.19
2022-09-15T03:23:59.605Z,100640.31
2022-09-15T03:26:27.912Z,100640.25
2022-09-15T03:28:55.501Z,100641.78
2022-09-15T03:31:23.084Z,100642.22
2022-09-15T03:33:51.465Z,100643.81
2022-09-15T03:36:19.360Z,100655.69
2022-09-15T03:38:46.918Z,100652.41
2022-09-15T03:41:14.266Z,100651.88
2022-09-15T03:43:42.539Z,100655.16
2022-09-15T03:46:15.101Z,100656.75
2022-09-15T03:48:42.914Z,100659.66
2022-09-15T03:51:10.802Z,100663.81
2022-09-15T03:53:40.392Z,100660.59
2022-09-15T03:56:25.490Z,100659.56
2022-09-15T03:58:54.310Z,100658.75
2022-09-15T04:01:22.309Z,100665.53
2022-09-15T04:03:51.509Z,100662.22
2022-09-15T04:06:21.245Z,100684.13
2022-09-15T04:08:50.956Z,100678.28
2022-09-15T04:11:20.641Z,100668.66
2022-09-15T04:13:49.256Z,100672.97
2022-09-15T04:16:28.028Z,100682.13
2022-09-15T04:18:56.447Z,100681.03
2022-09-15T04:21:26.578Z,100688.81
2022-09-15T04:23:55.041Z,100701.09
2022-09-15T04:26:32.222Z,100700.34
2022-09-15T04:29:04.184Z,100705.59
2022-09-15T04:31:33.597Z,100704.03
2022-09-15T04:34:02.142Z,100693.78
2022-09-15T04:36:30.201Z,100692.00
2022-09-15T04:39:04.145Z,100696.59
2022-09-15T04:41:33.747Z,100698.88
2022-09-15T04:44:01.876Z,100703.28
2022-09-15T04:46:30.195Z,100709.00
2022-09-15T04:48:58.178Z,100703.28
2022-09-15T04:51:27.638Z,100704.91
2022-09-15T04:53:55.651Z,100697.59
2022-09-15T04:56:26.210Z,100706.50
2022-09-15T04:59:02.476Z,100701.94
2022-09-15T05:01:34.307Z,100701.56
2022-09-15T05:04:04.382Z,100708.31
2022-09-15T05:06:32.442Z,100708.63
2022-09-15T05:09:00.034Z,100709.44
2022-09-15T05:11:28.964Z,100710.41
2022-09-15T05:13:57.213Z,100710.69
2022-09-15T05:16:28.355Z,100716.13
2022-09-15T05:18:59.630Z,100721.31
2022-09-15T05:21:28.438Z,100710.41
2022-09-15T05:23:56.733Z,100720.66
2022-09-15T05:26:27.221Z,100713.94
2022-09-15T05:28:56.639Z,100719.94
2022-09-15T05:31:32.745Z,100723.22
2022-09-15T05:34:05.933Z,100724.84
2022-09-15T05:36:34.196Z,100730.00
2022-09-15T05:39:02.667Z,100738.97
2022-09-15T05:41:30.992Z,100739.44
2022-09-15T05:43:59.430Z,100740.84
2022-09-15T05:46:28.286Z,100750.59
2022-09-15T05:48:58.434Z,100755.69
2022-09-15T05:51:26.077Z,100752.41
2022-09-15T05:53:54.014Z,100758.78
2022-09-15T05:56:21.683Z,100758.34
2022-09-15T05:58:50.135Z,100762.69
2022-09-15T06:01:21.367Z,100765.00
2022-09-15T06:03:50.151Z,100773.13
2022-09-15T06:06:18.225Z,100774.44
2022-09-15T06:08:52.781Z,100778.22
2022-09-15T06:11:31.356Z,100787.72
2022-09-15T06:14:04.018Z,100785.28
2022-09-15T06:16:34.470Z,100790.31
2022-09-15T06:19:02.743Z,100793.00
2022-09-15T06:21:31.642Z,100792.78
2022-09-15T06:24:02.064Z,100794.59
2022-09-15T06:26:30.976Z,100793.81
2022-09-15T06:29:01.070Z,100796.66
2022-09-15T06:31:32.018Z,100799.22
2022-09-15T06:34:00.918Z,100810.75
2022-09-15T06:36:30.308Z,100808.09
2022-09-15T06:38:58.990Z,100803.94
2022-09-15T06:41:42.652Z,100812.63
2022-09-15T06:44:19.941Z,100817.28
2022-09-15T06:46:47.865Z,100810.97
2022-09-15T06:49:16.129Z,100813.81
2022-09-15T06:51:43.625Z,100812.81
2022-09-15T06:54:12.369Z,100818.09
2022-09-15T06:56:40.025Z,100828.97
2022-09-15T06:59:08.101Z,100831.91
2022-09-15T07:01:35.709Z,100830.06
2022-09-15T07:04:06.234Z,100826.47
2022-09-15T07:06:34.277Z,100827.66
2022-09-15T07:09:04.904Z,100838.34
2022-09-15T07:11:32.936Z,100831.25
2022-09-15T07:14:01.226Z,100844.09
2022-09-15T07:16:29.260Z,100836.00
2022-09-15T07:18:59.449Z,100839.31
2022-09-15T07:21:27.154Z,100841.75
2022-09-15T07:23:57.731Z,100838.03
2022-09-15T07:26:28.270Z,100838.34
2022-09-15T07:28:58.395Z,100835.09
2022-09-15T07:31:28.345Z,100840.56
2022-09-15T07:33:56.109Z,100840.59
2022-09-15T07:36:23.763Z,100848.47
2022-09-15T07:38:51.594Z,100845.75
2022-09-15T07:41:39.119Z,100854.50
2022-09-15T07:44:08.463Z,100861.84
2022-09-15T07:46:36.845Z,100854.25
2022-09-15T07:49:05.495Z,100858.34
2022-09-15T07:51:33.777Z,100858.31
2022-09-15T07:54:01.437Z,100863.78
2022-09-15T07:56:28.895Z,100863.50
2022-09-15T07:58:57.237Z,100869.75
2022-09-15T08:01:24.683Z,100869.47
2022-09-15T08:03:53.054Z,100877.38
2022-09-15T08:06:23.526Z,100880.34
2022-09-15T08:08:56.367Z,100883.06
2022-09-15T08:11:27.667Z,100883.56
2022-09-15T08:14:02.814Z,100888.69
2022-09-15T08:16:31.262Z,100887.88
2022-09-15T08:19:02.318Z,100888.13
2022-09-15T08:21:30.272Z,100885.69
2022-09-15T08:24:00.125Z,100887.34
2022-09-15T08:26:29.820Z,100887.84
2022-09-15T08:28:58.228Z,100891.59
2022-09-15T08:31:26.687Z,100897.81
2022-09-15T08:33:55.746Z,100897.22
2022-09-15T08:36:28.150Z,100906.69
2022-09-15T08:38:56.015Z,100902.28
2022-09-15T08:41:33.313Z,100899.28
2022-09-15T08:44:31.071Z,100906.09
2022-09-15T08:47:16.762Z,100901.38
2022-09-15T08:50:08.385Z,100899.38
2022-09-15T08:52:41.096Z,100901.53
2022-09-15T08:55:29.664Z,100900.91
2022-09-15T08:57:59.708Z,100899.25
2022-09-15T09:00:30.009Z,100902.38
2022-09-15T09:03:05.523Z,100904.75
2022-09-15T09:05:46.226Z,100900.56
2022-09-15T09:08:42.389Z,100898.31
2022-09-15T09:11:52.380Z,100899.84
2022-09-15T09:14:25.779Z,100898.66
2022-09-15T09:17:11.440Z,100905.72
2022-09-15T09:19:38.657Z,100906.16
2022-09-15T09:22:13.661Z,100908.66
2022-09-15T09:24:54.496Z,100915.44
2022-09-15T09:27:26.929Z,100905.81
2022-09-15T09:30:19.341Z,100905.03
2022-09-15T09:33:12.506Z,100905.91
2022-09-15T09:35:50.206Z,100899.56
2022-09-15T09:38:28.717Z,100903.97
2022-09-15T09:41:02.324Z,100904.91
2022-09-15T09:43:33.151Z,100908.69
2022-09-15T09:46:06.925Z,100907.50
2022-09-15T09:48:36.493Z,100915.16
2022-09-15T09:51:03.886Z,100914.63
2022-09-15T09:53:38.097Z,100905.63
2022-09-15T09:56:26.971Z,100908.84
2022-09-15T09:58:55.658Z,100909.69
2022-09-15T10:01:25.730Z,100905.91
2022-09-15T10:04:13.805Z,100910.78
2022-09-15T10:06:41.522Z,100906.84
2022-09-15T10:09:19.900Z,100906.16
2022-09-15T10:11:52.920Z,100903.16
2022-09-15T10:14:21.993Z,100901.41
2022-09-15T10:17:10.376Z,100893.13
2022-09-15T10:19:51.064Z,100894.81
2022-09-15T10:22:33.271Z,100889.81
2022-09-15T10:25:22.061Z,100887.31
2022-09-15T10:28:17.565Z,100879.78
2022-09-15T10:31:16.718Z,100888.28
2022-09-15T10:33:45.222Z,100883.56
2022-09-15T10:36:28.585Z,100884.50
2022-09-15T10:38:58.902Z,100881.47
2022-09-15T10:41:37.642Z,100880.06
2022-09-15T10:44:20.297Z,100880.00
2022-09-15T10:47:02.809Z,100878.47
2022-09-15T10:50:07.522Z,100869.59
2022-09-15T10:52:56.582Z,100879.41
2022-09-15T10:55:52.602Z,100873.84
2022-09-15T10:58:34.736Z,100871.25
2022-09-15T11:01:28.235Z,100871.97
2022-09-15T11:04:13.315Z,100869.53
2022-09-15T11:06:55.673Z,100862.88
2022-09-15T11:09:43.664Z,100864.53
2022-09-15T11:12:24.785Z,100864.91
2022-09-15T11:15:13.413Z,100860.34
2022-09-15T11:18:21.924Z,100851.03
2022-09-15T11:21:07.851Z,100853.84
2022-09-15T11:23:44.909Z,100854.28
2022-09-15T11:26:28.482Z,100854.00
2022-09-15T11:29:01.690Z,100858.28
2022-09-15T11:31:41.476Z,100847.09
2022-09-15T11:34:20.412Z,100850.84
2022-09-15T11:37:17.126Z,100843.72
2022-09-15T11:40:06.232Z,100840.69
2022-09-15T11:42:42.484Z,100846.31
2022-09-15T11:45:25.331Z,100853.03
2022-09-15T11:48:15.604Z,100851.81
2022-09-15T11:50:49.662Z,100851.69
2022-09-15T11:53:27.818Z,100844.81
2022-09-15T11:56:20.070Z,100843.72
2022-09-15T11:59:16.097Z,100844.53
2022-09-15T12:02:16.314Z,100847.34
2022-09-15T12:05:08.183Z,100839.75
2022-09-15T12:07:54.844Z,100843.50
2022-09-15T12:10:52.072Z,100835.50
2022-09-15T12:13:24.079Z,100840.16
2022-09-15T12:15:55.707Z,100847.75
2022-09-15T12:18:48.519Z,100829.59
2022-09-15T12:22:02.572Z,100828.31
2022-09-15T12:25:00.791Z,100827.00
2022-09-15T12:27:28.882Z,100823.53
2022-09-15T12:29:59.864Z,100825.16
2022-09-15T12:32:27.861Z,100827.47
2022-09-15T12:34:57.511Z,100834.91
2022-09-15T12:37:30.864Z,100827.16
2022-09-15T12:39:58.895Z,100814.72
2022-09-15T12:42:31.565Z,100810.88
2022-09-15T12:45:30.214Z,100811.25
2022-09-15T12:48:08.451Z,100813.69
2022-09-15T12:50:39.722Z,100821.38
2022-09-15T12:53:22.838Z,100805.56
2022-09-15T12:55:50.213Z,100812.84
2022-09-15T12:58:22.395Z,100801.88
2022-09-15T13:01:14.300Z,100798.34
2022-09-15T13:06:27.018Z,100790.66
2022-09-15T13:09:06.018Z,100795.97
2022-09-15T13:14:36.157Z,100785.72
2022-09-15T13:17:13.481Z,100791.50
2022-09-15T13:19:46.993Z,100780.06
2022-09-15T13:22:30.647Z,100780.56
2022-09-15T13:25:16.619Z,100782.44
2022-09-15T13:27:52.620Z,100776.66
2022-09-15T13:31:17.299Z,100768.94
2022-09-15T13:41:32.679Z,100774.91
2022-09-15T13:44:22.501Z,100769.88
2022-09-15T13:47:04.808Z,100772.03
2022-09-15T13:49:40.888Z,100781.22
2022-09-15T13:52:22.567Z,100779.91
2022-09-15T13:55:14.811Z,100767.13
2022-09-15T14:00:55.347Z,100770.88
2022-09-15T14:03:27.696Z,100776.84
2022-09-15T14:05:56.947Z,100776.16
2022-09-15T14:08:32.668Z,100769.16
2022-09-15T14:11:06.514Z,100779.19
2022-09-15T14:13:37.560Z,100779.50
2022-09-15T14:16:12.584Z,100778.56
2022-09-15T14:18:46.192Z,100779.72
2022-09-15T14:21:18.618Z,100777.53
2022-09-15T14:23:48.033Z,100766.22
2022-09-15T14:26:18.393Z,100760.53
2022-09-15T14:28:56.564Z,100762.13
2022-09-15T14:31:33.643Z,100765.31
2022-09-15T14:34:02.990Z,100757.69
2022-09-15T14:36:32.812Z,100762.75
2022-09-15T14:39:21.013Z,100762.34
2022-09-15T14:41:50.033Z,100768.34
2022-09-15T14:47:29.265Z,100751.72
2022-09-15T14:50:17.590Z,100745.31
2022-09-15T14:52:48.909Z,100752.41
2022-09-15T14:55:32.527Z,100745.63
2022-09-15T14:58:21.078Z,100749.94
2022-09-15T15:01:04.684Z,100742.22
2022-09-15T15:03:35.005Z,100744.13
2022-09-15T15:06:30.760Z,100739.75
2022-09-15T15:09:03.902Z,100752.31
2022-09-15T15:11:33.659Z,100753.44
2022-09-15T15:14:02.696Z,100745.22
2022-09-15T15:16:31.641Z,100741.94
2022-09-15T15:18:59.567Z,100737.41
2022-09-15T15:21:41.016Z,100744.41
2022-09-15T15:24:14.228Z,100741.78
2022-09-15T15:26:43.510Z,100737.00
2022-09-15T15:29:43.428Z,100747.56
2022-09-15T15:32:16.794Z,100738.63
2022-09-15T15:35:01.734Z,100735.38
2022-09-15T15:37:34.435Z,100739.19
2022-09-15T15:40:05.558Z,100742.22
2022-09-15T15:42:33.204Z,100739.13
2022-09-15T15:45:09.659Z,100735.59
2022-09-15T15:47:37.566Z,100734.28
2022-09-15T15:50:24.985Z,100729.25
2022-09-15T15:52:53.259Z,100730.78
2022-09-15T15:55:27.142Z,100726.13
2022-09-15T15:57:56.346Z,100725.44
2022-09-15T16:00:26.762Z,100731.72
2022-09-15T16:02:54.364Z,100727.97
2022-09-15T16:05:26.181Z,100728.84
2022-09-15T16:07:57.060Z,100731.28
2022-09-15T16:10:28.572Z,100726.91
2022-09-15T16:12:56.376Z,100729.38
2022-09-15T16:15:24.101Z,100727.34
2022-09-15T16:17:51.375Z,100735.44
2022-09-15T16:20:19.989Z,100729.09
2022-09-15T16:22:47.174Z,100727.88
2022-09-15T16:25:31.565Z,100733.16
2022-09-15T16:27:59.049Z,100732.91
2022-09-15T16:30:26.272Z,100737.19
2022-09-15T16:32:53.523Z,100743.19
2022-09-15T16:35:30.658Z,100742.78
2022-09-15T16:37:58.006Z,100739.13
2022-09-15T16:40:25.641Z,100747.03
2022-09-15T16:42:56.143Z,100749.34
2022-09-15T16:45:39.915Z,100752.16
2022-09-15T16:48:09.682Z,100755.91
2022-09-15T16:50:40.160Z,100751.66
2022-09-15T16:53:18.238Z,100746.19
2022-09-15T16:55:51.278Z,100753.16
2022-09-15T16:58:20.630Z,100752.44
2022-09-15T17:00:49.801Z,100751.72
2022-09-15T17:03:20.213Z,100742.66
2022-09-15T17:05:52.578Z,100738.34
2022-09-15T17:08:22.584Z,100738.94
2022-09-15T17:10:50.843Z,100733.06
2022-09-15T17:13:25.080Z,100738.47
2022-09-15T17:15:59.802Z,100721.31
2022-09-15T17:18:28.400Z,100726.72
2022-09-15T17:21:05.076Z,100732.84
2022-09-15T17:23:37.329Z,100723.91
2022-09-15T17:26:09.955Z,100723.44
2022-09-15T17:28:37.843Z,100726.22
2022-09-15T17:31:07.191Z,100730.91
2022-09-15T17:33:34.540Z,100739.91
2022-09-15T17:36:02.261Z,100738.00
2022-09-15T17:38:30.308Z,100741.59
2022-09-15T17:40:58.210Z,100746.25
2022-09-15T17:43:28.552Z,100741.38
2022-09-15T17:45:56.774Z,100738.41
2022-09-15T17:48:24.624Z,100733.78
2022-09-15T17:50:52.677Z,100730.50
2022-09-15T17:53:29.265Z,100733.84
2022-09-15T17:55:57.232Z,100736.34
2022-09-15T17:58:31.713Z,100739.06
2022-09-15T18:01:02.203Z,100738.75
2022-09-15T18:03:36.127Z,100741.28
2022-09-15T18:06:09.050Z,100756.09
2022-09-15T18:08:37.277Z,100755.00
2022-09-15T18:11:06.401Z,100748.19
2022-09-15T18:13:34.369Z,100745.75
2022-09-15T18:16:07.272Z,100741.19
2022-09-15T18:18:34.863Z,100742.53
2022-09-15T18:21:07.715Z,100756.00
2022-09-15T18:23:35.306Z,100749.44
2022-09-15T18:26:02.506Z,100756.53
2022-09-15T18:28:29.760Z,100758.72
2022-09-15T18:30:57.279Z,100768.53
2022-09-15T18:33:26.918Z,100768.84
2022-09-15T18:35:59.231Z,100776.28
2022-09-15T18:38:26.967Z,100778.72
2022-09-15T18:40:59.746Z,100784.19
2022-09-15T18:43:28.021Z,100785.88
2022-09-15T18:46:02.152Z,100798.44
2022-09-15T18:48:30.520Z,100803.09
2022-09-15T18:50:59.016Z,100803.88
2022-09-15T18:53:29.326Z,100811.81
2022-09-15T18:55:57.267Z,100816.19
2022-09-15T18:58:25.048Z,100824.38
2022-09-15T19:01:01.542Z,100819.75
2022-09-15T19:03:28.803Z,100823.28
2022-09-15T19:05:56.441Z,100829.84
2022-09-15T19:08:24.531Z,100835.31
2022-09-15T19:11:00.569Z,100835.31
2022-09-15T19:13:29.223Z,100834.50
2022-09-15T19:16:02.420Z,100850.13
2022-09-15T19:18:30.343Z,100853.59
2022-09-15T19:21:11.218Z,100859.88
2022-09-15T19:23:39.496Z,100866.16
2022-09-15T19:26:09.387Z,100872.72
2022-09-15T19:28:36.725Z,100876.53
2022-09-15T19:31:04.381Z,100871.88
2022-09-15T19:33:38.312Z,100879.56
2022-09-15T19:36:26.766Z,100891.28
2022-09-15T19:38:57.073Z,100892.91
2022-09-15T19:41:24.877Z,100895.66
2022-09-15T19:43:52.638Z,100895.94
2022-09-15T19:46:24.545Z,100903.31
2022-09-15T19:48:53.366Z,100911.50
2022-09-15T19:51:22.016Z,100902.78
2022-09-15T19:53:49.511Z,100911.25
2022-09-15T19:56:22.304Z,100919.72
2022-09-15T19:58:52.970Z,100904.44
2022-09-15T20:01:20.757Z,100912.38
2022-09-15T20:03:49.611Z,100915.75
2022-09-15T20:06:17.356Z,100911.56
2022-09-15T20:08:47.255Z,100915.09
2022-09-15T20:11:15.926Z,100912.38
2022-09-15T20:13:44.273Z,100918.38
2022-09-15T20:16:18.126Z,100928.25
2022-09-15T20:18:55.526Z,100937.53
2022-09-15T20:21:50.884Z,100932.94
2022-09-15T20:24:20.676Z,100939.75
2022-09-15T20:26:48.813Z,100933.50
2022-09-15T20:29:26.554Z,100936.53
2022-09-15T20:32:07.822Z,100941.13
2022-09-15T20:34:39.970Z,100936.53
2022-09-15T20:37:09.193Z,100937.91
2022-09-15T20:39:45.543Z,100938.41
2022-09-15T20:42:16.675Z,100942.81
2022-09-15T20:44:46.465Z,100951.81
2022-09-15T20:47:19.311Z,100954.00
2022-09-15T20:49:49.311Z,100939.59
2022-09-15T20:52:17.236Z,100947.19
2022-09-15T20:54:44.985Z,100951.84
2022-09-15T20:57:12.705Z,100952.09
2022-09-15T20:59:40.023Z,100957.81
2022-09-15T21:02:07.866Z,100958.41
2022-09-15T21:04:35.612Z,100956.75
2022-09-15T21:07:02.811Z,100961.94
2022-09-15T21:09:30.072Z,100959.47
2022-09-15T21:11:57.855Z,100959.78
2022-09-15T21:14:25.483Z,100956.75
2022-09-15T21:16:53.191Z,100951.88
2022-09-15T21:19:20.754Z,100951.31
2022-09-15T21:21:48.300Z,100951.34
2022-09-15T21:24:16.070Z,100949.16
2022-09-15T21:27:02.824Z,100951.88
2022-09-15T21:29:30.867Z,100952.44
2022-09-15T21:31:58.418Z,100945.63
2022-09-15T21:34:26.601Z,100947.78
2022-09-15T21:36:54.096Z,100940.72
2022-09-15T21:39:21.957Z,100943.16
2022-09-15T21:41:50.124Z,100938.50
2022-09-15T21:44:17.557Z,100940.16
2022-09-15T21:46:52.209Z,100941.53
2022-09-15T21:49:21.066Z,100941.25
2022-09-15T21:51:49.075Z,100938.81
2022-09-15T21:54:16.985Z,100947.78
2022-09-15T21:56:48.731Z,100948.06
2022-09-15T21:59:22.708Z,100946.72
2022-09-15T22:01:59.613Z,100944.28
2022-09-15T22:04:27.378Z,100939.13
2022-09-15T22:06:54.976Z,100941.31
2022-09-15T22:09:24.048Z,100944.88
2022-09-15T22:11:51.610Z,100944.41
2022-09-15T22:14:19.661Z,100947.38
2022-09-15T22:16:47.717Z,100946.06
2022-09-15T22:19:15.507Z,100942.50
2022-09-15T22:21:48.196Z,100942.28
2022-09-15T22:24:27.149Z,100945.59
2022-09-15T22:26:56.144Z,100938.81
2022-09-15T22:29:23.621Z,100935.81
2022-09-15T22:31:52.110Z,100950.25
2022-09-15T22:34:20.454Z,100934.75
2022-09-15T22:36:47.919Z,100936.38
2022-09-15T22:39:17.399Z,100930.38
2022-09-15T22:41:44.723Z,100924.66
2022-09-15T22:44:19.556Z,100921.63
2022-09-15T22:46:47.050Z,100923.84
2022-09-15T22:49:14.441Z,100929.03
2022-09-15T22:51:41.893Z,100920.59
2022-09-15T22:54:10.955Z,100921.72
2022-09-15T22:56:39.041Z,100923.59
2022-09-15T22:59:06.681Z,100922.50
2022-09-15T23:01:36.238Z,100917.34
2022-09-15T23:04:04.078Z,100921.16
2022-09-15T23:06:34.004Z,100910.28
2022-09-15T23:09:04.811Z,100914.38
2022-09-15T23:11:35.340Z,100911.41
2022-09-15T23:14:02.941Z,100916.84
2022-09-15T23:16:31.229Z,100918.47
2022-09-15T23:18:59.454Z,100918.47
2022-09-15T23:21:26.931Z,100921.75
2022-09-15T23:23:55.033Z,100918.22
2022-09-15T23:26:24.418Z,100907.59
2022-09-15T23:28:52.872Z,100908.16
2022-09-15T23:31:21.877Z,100908.16
2022-09-15T23:33:49.555Z,100912.50
2022-09-15T23:36:21.497Z,100911.13
2022-09-15T23:38:49.635Z,100900.22
2022-09-15T23:41:18.223Z,100915.75
2022-09-15T23:43:46.561Z,100911.16
2022-09-15T23:46:14.228Z,100908.13
2022-09-15T23:48:42.679Z,100902.94
2022-09-15T23:51:10.080Z,100907.88
2022-09-15T23:53:37.881Z,100901.06
2022-09-15T23:56:05.807Z,100890.16
2022-09-15T23:58:33.293Z,100906.22
